createdAt,value
2022-09-23T00:19:48.181Z,6.23
2022-09-23T00:22:20.985Z,6.10
2022-09-23T00:24:47.284Z,5.87
2022-09-23T00:27:13.470Z,5.90
2022-09-23T00:29:39.976Z,6.03
2022-09-23T00:32:06.236Z,5.97
2022-09-23T00:34:33.157Z,5.63
2022-09-23T00:37:31.590Z,6.40
2022-09-23T00:45:18.653Z,5.73
2022-09-23T00:47:55.877Z,5.93
2022-09-23T00:50:36.953Z,5.40
2022-09-23T00:53:08.734Z,5.10
2022-09-23T00:58:30.473Z,5.93
2022-09-23T01:00:59.682Z,5.40
2022-09-23T01:18:59.478Z,5.77
2022-09-23T01:21:38.907Z,5.70
2022-09-23T01:24:58.440Z,5.87
2022-09-23T01:27:41.213Z,5.57
2022-09-23T01:30:32.414Z,5.57
2022-09-23T01:33:04.331Z,5.83
2022-09-23T01:35:53.349Z,5.03
2022-09-23T01:54:59.559Z,6.23
2022-09-23T01:57:38.268Z,5.20
2022-09-23T02:00:15.973Z,5.57
2022-09-23T02:02:58.592Z,5.77
2022-09-23T02:05:50.758Z,5.80
2022-09-23T02:08:38.359Z,5.50
2022-09-23T02:11:14.609Z,5.60
2022-09-23T02:13:47.386Z,5.67
2022-09-23T02:32:35.979Z,6.07
2022-09-23T02:35:18.515Z,6.03
2022-09-23T02:38:30.118Z,7.67
2022-09-23T02:41:04.776Z,6.13
2022-09-23T02:43:39.823Z,6.47
2022-09-23T02:46:07.088Z,6.83
2022-09-23T03:02:35.399Z,9.33
2022-09-23T03:05:38.183Z,7.87
2022-09-23T03:08:13.440Z,6.80
2022-09-23T03:11:01.184Z,7.80
2022-09-23T03:13:50.355Z,6.90
2022-09-23T03:16:29.691Z,7.30
2022-09-23T03:19:24.488Z,8.60
2022-09-23T03:36:10.823Z,8.73
2022-09-23T03:38:42.530Z,8.97
2022-09-23T03:41:19.692Z,8.57
2022-09-23T03:44:18.962Z,8.43
2022-09-23T03:46:48.989Z,7.37
2022-09-23T03:49:17.381Z,7.07
2022-09-23T03:51:44.784Z,7.83
2022-09-23T03:54:11.503Z,6.77
2022-09-23T04:12:27.833Z,6.00
2022-09-23T04:14:54.199Z,5.57
2022-09-23T04:17:20.436Z,5.50
2022-09-23T04:19:46.648Z,5.70
2022-09-23T04:22:13.099Z,5.67
2022-09-23T04:24:39.449Z,6.03
2022-09-23T04:27:05.722Z,5.53
2022-09-23T04:29:32.209Z,5.97
2022-09-23T04:37:20.320Z,5.93
2022-09-23T04:39:46.703Z,6.63
2022-09-23T04:42:13.390Z,6.47
2022-09-23T04:44:40.022Z,7.57
2022-09-23T04:47:06.493Z,7.07
2022-09-23T04:49:32.982Z,7.33
2022-09-23T04:51:59.231Z,6.80
2022-09-23T04:54:25.717Z,7.20
2022-09-23T05:21:35.444Z,6.23
2022-09-23T05:25:17.598Z,6.80
2022-09-23T05:27:51.765Z,6.17
2022-09-23T05:30:18.212Z,6.33
2022-09-23T05:32:44.996Z,6.10
2022-09-23T05:35:11.285Z,6.40
2022-09-23T05:37:44.468Z,6.67
2022-09-23T05:40:10.672Z,6.10
2022-09-23T05:42:39.334Z,6.47
2022-09-23T06:01:14.169Z,6.13
2022-09-23T06:03:43.728Z,5.40
2022-09-23T06:06:17.350Z,6.20
2022-09-23T06:08:45.402Z,5.53
2022-09-23T06:11:13.068Z,5.90
2022-09-23T06:13:40.400Z,4.97
2022-09-23T06:16:47.293Z,6.67
2022-09-23T06:23:59.853Z,5.83
2022-09-23T06:27:01.786Z,5.43
2022-09-23T06:29:43.205Z,5.40
2022-09-23T06:33:04.246Z,5.23
2022-09-23T06:35:56.526Z,5.63
2022-09-23T06:38:26.096Z,4.77
2022-09-23T06:40:54.687Z,5.63
2022-09-23T06:48:26.400Z,5.90
2022-09-23T06:50:53.627Z,6.63
2022-09-23T06:53:23.039Z,3.93
2022-09-23T06:56:21.443Z,5.63
2022-09-23T06:58:48.779Z,4.20
2022-09-23T07:01:16.768Z,4.60
2022-09-23T07:03:45.149Z,3.93
2022-09-23T07:21:45.474Z,3.07
2022-09-23T07:24:20.562Z,3.53
2022-09-23T07:26:48.974Z,3.13
2022-09-23T07:29:15.467Z,4.10
2022-09-23T07:31:43.234Z,3.60
2022-09-23T07:34:17.225Z,3.37
2022-09-23T07:36:43.969Z,3.40
2022-09-23T07:39:12.071Z,3.70
2022-09-23T07:54:48.056Z,4.77
2022-09-23T07:57:14.550Z,4.03
2022-09-23T07:59:42.537Z,4.47
2022-09-23T08:02:17.800Z,3.00
2022-09-23T08:04:44.119Z,1.83
2022-09-23T08:07:12.565Z,1.60
2022-09-23T08:09:41.173Z,2.10
2022-09-23T08:12:18.167Z,0.70
2022-09-23T08:30:21.678Z,1.70
2022-09-23T08:32:50.840Z,1.67
2022-09-23T08:35:18.422Z,1.90
2022-09-23T08:38:03.605Z,1.10
2022-09-23T08:40:45.331Z,1.50
2022-09-23T08:43:30.348Z,1.50
2022-09-23T08:46:02.320Z,1.73
2022-09-23T08:48:36.433Z,1.77
2022-09-23T09:07:47.056Z,1.90
2022-09-23T09:10:24.907Z,3.80
2022-09-23T09:13:06.735Z,3.50
2022-09-23T09:15:42.176Z,3.67
2022-09-23T09:18:19.161Z,2.33
2022-09-23T09:21:09.149Z,2.00
2022-09-23T09:23:38.461Z,2.13
2022-09-23T09:26:33.529Z,2.43
2022-09-23T10:03:12.844Z,1.20
2022-09-23T10:05:46.770Z,1.20
2022-09-23T10:08:32.781Z,1.07
2022-09-23T10:11:08.569Z,0.90
2022-09-23T10:13:43.654Z,0.93
2022-09-23T10:16:14.850Z,0.80
2022-09-23T10:18:47.284Z,0.63
2022-09-23T10:37:01.710Z,0.60
2022-09-23T10:39:47.715Z,1.07
2022-09-23T10:42:58.909Z,0.80
2022-09-23T10:45:54.594Z,1.10
2022-09-23T10:48:46.714Z,1.20
2022-09-23T10:51:26.380Z,0.80
2022-09-23T10:54:05.403Z,1.20
2022-09-23T11:16:09.726Z,0.87
2022-09-23T11:18:49.125Z,0.90
2022-09-23T11:21:40.327Z,1.40
2022-09-23T11:24:06.788Z,1.67
2022-09-23T11:26:55.301Z,1.20
2022-09-23T11:29:48.922Z,0.93
2022-09-23T11:57:07.856Z,0.80
2022-09-23T12:00:33.649Z,0.70
2022-09-23T12:03:53.403Z,0.73
2022-09-23T12:07:21.628Z,1.00
2022-09-23T12:10:26.752Z,0.80
2022-09-23T12:31:43.043Z,0.90
2022-09-23T12:34:48.625Z,1.00
2022-09-23T12:37:26.561Z,1.03
2022-09-23T12:39:58.020Z,0.87
2022-09-23T12:42:28.874Z,0.70
2022-09-23T12:45:34.531Z,1.00
2022-09-23T12:48:26.502Z,0.83
2022-09-23T13:06:51.194Z,0.50
2022-09-23T13:09:25.138Z,0.80
2022-09-23T13:12:16.828Z,0.87
2022-09-23T13:15:23.937Z,0.63
2022-09-23T13:18:22.717Z,0.90
2022-09-23T13:21:20.961Z,0.77
2022-09-23T13:44:56.669Z,0.80
2022-09-23T13:48:39.058Z,0.87
2022-09-23T13:51:30.021Z,0.90
2022-09-23T13:54:48.634Z,0.80
2022-09-23T13:58:09.573Z,1.13
2022-09-23T14:49:01.183Z,1.10
2022-09-23T14:52:31.816Z,1.10
2022-09-23T14:56:01.130Z,1.07
2022-09-23T14:59:18.655Z,1.00
2022-09-23T15:02:00.163Z,1.00
2022-09-23T15:24:34.641Z,0.93
2022-09-23T15:27:02.226Z,0.90
2022-09-23T15:29:28.735Z,1.00
2022-09-23T15:31:55.101Z,1.17
2022-09-23T15:34:21.797Z,0.90
2022-09-23T15:36:49.026Z,1.30
2022-09-23T15:39:15.526Z,1.33
2022-09-23T15:41:42.893Z,1.47
2022-09-23T15:49:52.147Z,1.43
2022-09-23T15:53:13.074Z,1.53
2022-09-23T15:56:29.328Z,1.00
2022-09-23T15:59:32.274Z,0.90
2022-09-23T16:02:20.506Z,1.20
2022-09-23T16:05:42.427Z,1.20
2022-09-23T16:23:46.780Z,1.27
2022-09-23T16:27:16.163Z,1.20
2022-09-23T16:30:37.161Z,1.37
2022-09-23T16:34:01.588Z,1.10
2022-09-23T16:37:22.966Z,1.20
2022-09-23T16:40:24.276Z,1.40
2022-09-23T16:56:51.899Z,1.60
2022-09-23T17:00:31.857Z,1.10
2022-09-23T17:03:48.412Z,1.17
2022-09-23T17:06:29.579Z,1.40
2022-09-23T17:09:50.602Z,1.27
2022-09-23T17:13:11.553Z,1.50
2022-09-23T17:16:12.901Z,1.50
2022-09-23T17:45:55.939Z,2.20
2022-09-23T17:48:58.104Z,2.20
2022-09-23T17:52:19.184Z,2.57
2022-09-23T17:55:40.315Z,2.80
2022-09-23T17:59:11.915Z,2.50
2022-09-23T18:02:33.151Z,2.90
2022-09-23T18:21:28.647Z,2.90
2022-09-23T18:25:22.705Z,2.33
2022-09-23T18:28:59.344Z,2.00
2022-09-23T18:32:20.400Z,1.77
2022-09-23T18:35:41.334Z,1.63
2022-09-23T18:54:00.637Z,2.40
2022-09-23T18:57:32.198Z,2.00
2022-09-23T19:00:33.367Z,2.20
2022-09-23T19:03:54.438Z,2.60
2022-09-23T19:07:15.377Z,2.30
2022-09-23T19:10:17.852Z,2.33
2022-09-23T19:12:59.965Z,2.27
2022-09-23T19:37:29.162Z,1.97
2022-09-23T19:40:30.428Z,2.33
2022-09-23T19:43:11.690Z,2.30
2022-09-23T19:46:32.809Z,2.37
2022-09-23T19:50:03.074Z,2.20
2022-09-23T19:53:04.832Z,2.40
2022-09-23T20:10:09.327Z,2.60
2022-09-23T20:13:31.826Z,2.00
2022-09-23T20:16:37.459Z,2.20
2022-09-23T20:19:34.220Z,2.03
2022-09-23T20:22:55.342Z,2.17
2022-09-23T20:26:34.594Z,1.90
2022-09-23T20:44:14.232Z,2.33
2022-09-23T20:47:42.537Z,2.67
2022-09-23T20:51:03.554Z,2.30
2022-09-23T20:54:24.565Z,5.70
2022-09-23T20:57:27.013Z,4.27
2022-09-23T21:00:08.578Z,4.83
2022-09-23T21:03:32.203Z,4.00
2022-09-23T21:28:44.742Z,3.37
2022-09-23T21:32:05.719Z,3.90
2022-09-23T21:35:26.822Z,3.20
2022-09-23T21:38:27.804Z,3.03
2022-09-23T21:41:11.185Z,3.17
2022-09-23T21:44:12.288Z,3.10
2022-09-23T22:06:39.729Z,3.20
2022-09-23T22:10:00.690Z,2.90
2022-09-23T22:13:21.669Z,3.17
2022-09-23T22:16:23.855Z,3.13
2022-09-23T22:19:17.305Z,3.00
2022-09-23T22:22:38.269Z,3.40
2022-09-23T22:42:51.970Z,3.57
2022-09-23T22:45:56.688Z,3.93
2022-09-23T22:49:14.972Z,3.70
2022-09-23T22:52:35.950Z,3.57
2022-09-23T22:55:57.778Z,3.63
2022-09-23T22:58:58.784Z,2.80
2022-09-23T23:01:41.261Z,3.27
2022-09-23T23:23:54.710Z,3.63
2022-09-23T23:27:15.653Z,3.33
2022-09-23T23:29:56.955Z,4.10
2022-09-23T23:33:18.114Z,3.77
2022-09-23T23:36:40.812Z,3.80
2022-09-23T23:40:01.810Z,3.90
